Latest Weather Observations for Kadina

IDS60801

Issued at 9:11 pm CST Monday 18 June 2018 (issued every 10 minutes, with the page automatically refreshed every 10 minutes)

About weather observations | Map of weather stations | Latest weather observations for SA | Other Formats
Station Details ID: 022050 Name: KADINA AWS Lat: -33.97 Lon: 137.66 Height: 41.14 m
Data from the previous 72 hours. | See also: Recent months at Kadina
Date/Time
CST
Temp
°C
App
Temp
°C
Dew
Point
°C
Rel
Hum
%
Delta-T
°C
Wind Press
QNH
hPa
Press
MSL
hPa
Rain since
9am
mm
Dir  Spd
km/h
Gust
km/h
Spd
kts
Gust
kts
18/09:00pm 7.1 4.2 4.6 84 1.1 NE 9 11 5 6 1028.9 1028.9 0.0
18/08:30pm 7.7 4.5 5.0 83 1.2 ENE 11 13 6 7 1028.4 1028.4 0.0
18/08:00pm 9.1 6.6 6.5 84 1.2 ENE 9 11 5 6 1028.0 1028.0 0.0
18/07:30pm 10.2 7.9 7.4 83 1.3 ENE 9 13 5 7 1028.1 1028.1 0.0
18/07:00pm 10.3 8.4 7.4 82 1.4 ESE 7 9 4 5 1028.4 1028.4 0.0
18/06:30pm 10.8 10.2 7.5 80 1.6 CALM 0 0 0 0 1028.5 1028.5 0.0
18/06:00pm 11.0 10.2 6.6 74 2.1 CALM 0 0 0 0 1028.6 1028.6 0.0
18/05:30pm 11.1 10.3 6.5 73 2.2 CALM 0 6 0 3 1028.8 1028.8 0.0
18/05:00pm 11.4 9.0 6.9 74 2.1 WNW 9 11 5 6 1029.0 1029.0 0.0
18/04:30pm 11.5 9.4 6.6 72 2.3 WSW 7 9 4 5 1029.0 1029.0 0.0
18/04:00pm 11.7 9.3 6.8 72 2.3 WSW 9 11 5 6 1029.0 1029.0 0.0
18/03:30pm 11.7 9.2 6.4 70 2.5 WSW 9 11 5 6 1028.9 1028.9 0.0
18/03:00pm 11.8 9.6 7.7 76 2.0 SSW 9 11 5 6 1029.2 1029.2 0.0
18/02:30pm 12.3 11.6 6.8 69 2.6 CALM 0 0 0 0 1029.5 1029.5 0.0
18/02:00pm 12.2 9.7 6.7 69 2.6 ENE 9 13 5 7 1029.4 1029.4 0.0
18/01:30pm 12.1 9.9 6.4 68 2.7 E 7 11 4 6 1029.7 1029.7 0.0
18/01:00pm 12.2 9.7 6.5 68 2.7 E 9 13 5 7 1030.1 1030.1 0.0
18/12:30pm 11.9 9.4 6.4 69 2.6 E 9 15 5 8 1030.4 1030.4 0.0
18/12:00pm 12.3 10.6 6.1 66 2.9 SE 4 11 2 6 1030.8 1030.8 0.0
18/11:30am 12.0 9.8 6.3 68 2.7 SE 7 9 4 5 1031.2 1031.2 0.0
18/11:00am 11.9 9.4 6.6 70 2.5 SSE 9 13 5 7 1031.5 1031.5 0.0
18/10:30am 11.9 9.0 6.4 69 2.6 S 11 15 6 8 1031.8 1031.8 0.0
18/10:00am 11.7 9.9 5.6 66 2.8 SW 4 7 2 4 1031.8 1031.8 0.0
18/09:30am 10.9 7.8 7.4 79 1.7 SSE 13 17 7 9 1031.9 1031.9 0.0
18/09:00am 10.1 7.1 7.7 85 1.1 SSE 13 17 7 9 1031.7 1031.7 0.0
18/08:30am 9.6 6.4 7.0 84 1.2 SSE 13 15 7 8 1031.5 1031.5 0.0
18/08:00am 8.7 6.6 6.5 86 1.0 SSE 7 11 4 6 1031.4 1031.4 0.0
18/07:30am 8.8 5.9 6.3 84 1.1 S 11 17 6 9 1031.0 1031.0 0.0
18/07:00am 9.0 6.1 6.4 84 1.2 SSW 11 13 6 7 1030.7 1030.7 0.0
18/06:30am 8.7 6.2 6.7 87 0.9 SSW 9 11 5 6 1030.2 1030.2 0.0
18/06:00am 9.0 5.7 6.3 83 1.2 S 13 15 7 8 1029.8 1029.8 0.0
18/05:30am 9.2 4.7 6.1 81 1.4 SSE 19 22 10 12 1029.5 1029.5 0.0
18/05:00am 8.2 4.8 5.8 85 1.1 SE 13 15 7 8 1029.4 1029.4 0.0
18/04:30am 8.1 5.4 5.7 85 1.1 SSE 9 11 5 6 1029.6 1029.6 0.0
18/04:00am 8.1 5.0 5.6 84 1.1 S 11 15 6 8 1029.9 1029.9 0.0
18/03:30am 7.7 3.9 5.7 87 0.9 S 15 17 8 9 1030.0 1030.0 0.0
18/03:00am 6.5 3.8 5.6 94 0.4 SE 9 11 5 6 1030.0 1030.0 0.0
18/02:30am 5.9 3.1 5.0 94 0.4 ESE 9 13 5 7 1030.0 1030.0 0.0
18/02:00am 4.7 1.6 3.7 93 0.4 S 9 13 5 7 1030.0 1030.0 0.0
18/01:30am 4.7 1.6 3.8 94 0.4 SSE 9 13 5 7 1029.9 1029.9 0.0
18/01:00am 5.8 2.9 4.8 93 0.4 S 9 11 5 6 1030.0 1030.0 0.0
18/12:30am 6.1 3.2 4.9 92 0.5 SSE 9 11 5 6 1030.1 1030.1 0.0
18/12:00am 6.3 2.7 5.1 92 0.5 SE 13 17 7 9 1030.4 1030.4 0.0
 
Date/Time
CST
Temp
°C
App
Temp
°C
Dew
Point
°C
Rel
Hum
%
Delta-T
°C
Wind Press
QNH
hPa
Press
MSL
hPa
Rain since
9am
mm
Dir  Spd
km/h
Gust
km/h
Spd
kts
Gust
kts
17/11:30pm 5.6 1.5 4.6 93 0.4 S 15 17 8 9 1030.9 1030.9 0.0
17/11:00pm 5.2 1.1 4.2 93 0.4 S 15 17 8 9 1030.8 1030.8 0.0
17/10:30pm 5.4 0.9 4.2 92 0.5 S 17 19 9 10 1030.6 1030.6 0.0
17/10:00pm 5.8 1.0 4.6 92 0.5 S 19 19 10 10 1030.4 1030.4 0.0
17/09:30pm 6.3 1.5 4.9 91 0.6 S 19 20 10 11 1030.3 1030.3 0.0
17/09:00pm 6.9 2.2 5.1 88 0.8 S 19 22 10 12 1030.3 1030.3 0.0
17/08:30pm 7.1 2.8 5.3 88 0.8 S 17 20 9 11 1030.2 1030.2 0.0
17/08:00pm 7.0 2.7 5.3 89 0.8 S 17 17 9 9 1030.1 1030.1 0.0
17/07:30pm 7.3 3.9 5.8 90 0.7 S 13 15 7 8 1030.0 1030.0 0.0
17/07:00pm 7.8 4.8 6.1 89 0.8 S 11 13 6 7 1029.8 1029.8 0.0
17/06:30pm 8.8 6.7 6.8 87 0.9 SSW 7 9 4 5 1029.6 1029.6 0.0
17/06:00pm 9.6 6.8 7.0 84 1.2 S 11 13 6 7 1029.4 1029.4 0.0
17/05:30pm 11.1 6.8 7.2 77 1.9 S 19 33 10 18 1029.1 1029.1 0.0
17/05:00pm 11.8 5.7 6.7 71 2.4 SSW 28 43 15 23 1028.9 1028.9 0.0
17/04:30pm 13.1 6.8 5.8 61 3.4 SSW 28 33 15 18 1028.7 1028.7 0.0
17/04:00pm 13.2 6.8 5.4 59 3.7 SSW 28 35 15 19 1028.5 1028.5 0.0
17/03:30pm 13.5 6.7 5.2 57 3.8 SW 30 35 16 19 1028.4 1028.4 0.0
17/03:00pm 13.5 7.6 5.7 59 3.7 SSW 26 39 14 21 1028.2 1028.2 0.0
17/02:30pm 13.2 7.5 6.5 64 3.2 SSW 26 35 14 19 1028.0 1028.0 0.0
17/02:00pm 13.6 7.4 6.2 61 3.5 S 28 35 15 19 1028.1 1028.1 0.0
17/01:30pm 13.9 7.8 6.7 62 3.5 S 28 35 15 19 1028.1 1028.1 0.0
17/01:00pm 13.6 6.9 5.7 59 3.7 SSW 30 37 16 20 1028.4 1028.4 0.0
17/12:30pm 13.7 6.8 4.6 54 4.2 S 30 39 16 21 1028.8 1028.8 0.0
17/12:00pm 13.5 6.8 5.4 58 3.8 SSW 30 41 16 22 1029.0 1029.0 0.0
17/11:30am 13.5 6.4 5.7 59 3.7 S 32 41 17 22 1029.3 1029.3 0.0
17/11:00am 12.6 6.3 5.8 63 3.2 S 28 37 15 20 1029.5 1029.5 0.0
17/10:30am 12.3 7.8 7.0 70 2.5 S 20 26 11 14 1029.6 1029.6 0.0
17/10:00am 11.5 7.2 7.2 75 2.1 SSW 19 26 10 14 1029.6 1029.6 0.0
17/09:30am 10.4 7.3 7.3 81 1.5 S 13 17 7 9 1029.3 1029.3 0.0
17/09:00am 9.5 6.3 6.8 83 1.3 S 13 15 7 8 1028.9 1028.9 2.0
17/08:30am 7.7 5.0 5.7 87 0.9 SSW 9 13 5 7 1028.6 1028.6 2.0
17/08:00am 7.1 3.1 5.1 87 0.9 S 15 19 8 10 1028.2 1028.2 2.0
17/07:30am 6.3 2.2 4.5 88 0.8 S 15 17 8 9 1027.8 1027.8 2.0
17/07:00am 6.0 1.1 4.0 87 0.9 S 19 19 10 10 1027.5 1027.6 2.0
17/06:30am 5.7 1.1 3.7 87 0.8 S 17 19 9 10 1027.4 1027.5 2.0
17/06:00am 4.2 -0.3 2.2 87 0.8 S 15 17 8 9 1027.0 1027.1 2.0
17/05:30am 5.0 0.7 3.0 87 0.8 S 15 15 8 8 1026.8 1026.9 2.0
17/05:00am 4.5 0.1 2.7 88 0.7 S 15 17 8 9 1026.7 1026.8 2.0
17/04:30am 4.8 0.0 2.7 86 0.8 SSW 17 17 9 9 1026.9 1027.0 2.0
17/04:00am 5.3 0.6 3.2 86 0.9 S 17 17 9 9 1026.8 1026.9 2.0
17/03:30am 5.2 0.5 3.4 88 0.7 S 17 17 9 9 1026.9 1027.0 2.0
17/03:00am 4.5 0.1 2.7 88 0.7 SSW 15 15 8 8 1026.6 1026.7 2.0
17/02:30am 4.7 0.0 2.9 88 0.7 S 17 19 9 10 1026.7 1026.8 1.8
17/02:00am 4.9 0.2 2.9 87 0.8 S 17 19 9 10 1026.6 1026.7 1.8
17/01:30am 5.0 0.3 3.2 88 0.7 S 17 19 9 10 1026.5 1026.6 1.8
17/01:00am 4.6 0.2 2.9 89 0.7 S 15 17 8 9 1026.6 1026.7 1.8
17/12:30am 4.3 -0.1 2.7 89 0.6 SSW 15 15 8 8 1026.6 1026.7 1.8
17/12:00am 5.0 0.7 3.0 87 0.8 SSW 15 17 8 9 1026.8 1026.9 1.8
 
Date/Time
CST
Temp
°C
App
Temp
°C
Dew
Point
°C
Rel
Hum
%
Delta-T
°C
Wind Press
QNH
hPa
Press
MSL
hPa
Rain since
9am
mm
Dir  Spd
km/h
Gust
km/h
Spd
kts
Gust
kts
16/11:30pm 5.2 0.9 3.2 87 0.8 SSW 15 17 8 9 1026.8 1026.9 1.8
16/11:00pm 4.9 0.9 3.1 88 0.7 SSW 13 15 7 8 1026.5 1026.6 1.8
16/10:30pm 5.8 1.9 3.5 85 1.0 SSW 13 15 7 8 1026.4 1026.5 1.8
16/10:00pm 5.8 2.4 3.8 87 0.8 SSW 11 13 6 7 1026.6 1026.7 1.8
16/09:30pm 6.4 1.9 4.1 85 1.0 S 17 19 9 10 1026.3 1026.4 1.8
16/09:00pm 7.2 2.4 4.5 83 1.2 S 19 22 10 12 1026.1 1026.2 1.8
16/08:30pm 8.1 2.4 4.9 80 1.4 S 24 30 13 16 1025.8 1025.9 1.8
16/08:00pm 8.3 2.7 5.2 81 1.4 SSW 24 30 13 16 1025.7 1025.8 1.8
16/07:30pm 8.6 3.1 5.7 82 1.3 SSW 24 32 13 17 1025.3 1025.4 1.8
16/07:00pm 9.0 2.4 6.1 82 1.3 SSW 30 39 16 21 1024.8 1024.9 1.8
16/06:30pm 8.9 1.5 6.7 86 1.0 S 35 46 19 25 1024.2 1024.3 1.8
16/06:00pm 10.0 1.8 6.5 79 1.6 SSW 39 56 21 30 1023.4 1023.5 1.8
16/05:44pm 11.3 3.4 6.0 70 2.5 SW 37 56 20 30 1023.1 1023.2 1.8
16/05:30pm 11.4 4.4 6.9 74 2.1 SSW 33 46 18 25 1023.0 1023.1 1.8
16/05:00pm 11.5 4.2 7.2 75 2.1 SW 35 54 19 29 1022.8 1022.9 1.8
16/04:35pm 11.8 5.0 7.5 75 2.1 SW 33 52 18 28 1022.7 1022.8 1.8
16/04:30pm 11.8 4.9 7.3 74 2.2 SW 33 43 18 23 1022.7 1022.8 1.8
16/04:00pm 10.4 1.8 8.3 87 1.0 SW 43 61 23 33 1022.9 1023.0 1.8
16/03:48pm 11.5 4.4 8.2 80 1.6 WSW 35 57 19 31 1022.8 1022.9 1.2
16/03:30pm 12.9 4.4 7.1 68 2.8 SW 41 56 22 30 1022.5 1022.6 1.0
16/03:00pm 13.1 4.3 7.3 68 2.8 SW 43 56 23 30 1022.4 1022.5 1.0
16/02:34pm 12.5 4.5 7.6 72 2.4 WSW 39 61 21 33 1022.4 1022.5 1.0
16/02:30pm 12.6 4.6 7.5 71 2.5 WSW 39 56 21 30 1022.3 1022.4 1.0
16/02:19pm 12.2 4.0 6.5 68 2.7 WSW 39 69 21 37 1022.1 1022.2 1.0
16/02:00pm 13.4 5.6 6.7 64 3.2 SW 37 50 20 27 1022.2 1022.3 1.0
16/01:37pm 13.8 6.2 7.6 66 3.1 WSW 37 56 20 30 1022.1 1022.2 1.0
16/01:30pm 13.6 5.0 6.7 63 3.3 WSW 41 54 22 29 1022.3 1022.4 1.0
16/01:00pm 13.6 5.4 6.7 63 3.3 WSW 39 48 21 26 1022.6 1022.7 1.0
16/12:30pm 13.3 5.3 5.5 59 3.6 SW 37 46 20 25 1023.0 1023.1 1.0
16/12:00pm 13.4 7.0 7.0 65 3.1 SW 30 43 16 23 1023.2 1023.3 1.0
16/11:30am 11.9 4.6 7.2 73 2.3 SW 35 46 19 25 1023.5 1023.6 1.0
16/11:24am 12.0 5.7 7.5 74 2.2 SW 30 46 16 25 1023.5 1023.6 1.0
16/11:00am 11.3 7.6 7.8 79 1.7 WSW 17 28 9 15 1023.9 1024.0 0.8
16/10:30am 11.7 7.7 8.4 80 1.6 S 19 24 10 13 1024.0 1024.1 0.2
16/10:00am 10.6 7.2 7.8 83 1.4 SW 15 19 8 10 1024.0 1024.1 0.2
16/09:30am 10.6 6.3 6.9 78 1.7 S 19 28 10 15 1023.5 1023.6 0.0
16/09:00am 10.4 5.5 6.7 78 1.7 SSW 22 32 12 17 1023.2 1023.3 -
16/08:30am 9.2 5.9 6.6 84 1.2 SSW 13 17 7 9 1022.9 1023.0 -
16/08:00am 8.5 4.0 6.0 84 1.1 S 19 22 10 12 1022.6 1022.7 -
16/07:30am 8.9 4.4 6.2 83 1.2 S 19 22 10 12 1022.3 1022.4 -
16/07:00am 9.6 6.1 7.2 85 1.1 SSW 15 20 8 11 1022.0 1022.1 -
16/06:30am 9.8 6.4 7.7 87 1.0 WSW 15 19 8 10 1021.5 1021.6 -
16/06:00am 9.3 3.4 7.6 89 0.8 SSW 28 37 15 20 1021.5 1021.6 -
16/05:40am 10.1 5.8 8.0 87 1.0 WSW 20 54 11 29 1021.3 1021.4 -
16/05:30am 9.5 6.4 7.3 86 1.0 WSW 13 17 7 9 1021.0 1021.1 -
16/05:00am 9.3 3.7 7.3 87 0.9 SSW 26 41 14 22 1021.0 1021.1 -
16/04:30am 10.5 3.8 8.3 86 1.1 WSW 33 56 18 30 1020.9 1021.0 -
16/04:03am 11.0 4.6 7.1 77 1.9 SW 30 50 16 27 1020.5 1020.6 -
16/04:00am 10.7 5.0 6.6 76 1.9 SW 26 39 14 21 1020.5 1020.6 -
16/03:30am 10.5 2.5 7.6 82 1.4 WSW 39 59 21 32 1020.7 1020.8 -
16/03:25am 11.2 4.4 7.1 76 2.0 WSW 32 59 17 32 1020.8 1020.9 -
16/03:00am 10.5 5.0 7.4 81 1.5 WSW 26 32 14 17 1020.8 1020.9 2.0
16/02:40am 11.4 5.5 7.3 76 2.0 WSW 28 46 15 25 1021.1 1021.2 -
16/02:30am 11.2 5.5 6.7 74 2.1 WSW 26 37 14 20 1020.9 1021.0 -
16/02:00am 10.9 4.8 6.8 76 1.9 WSW 28 37 15 20 1021.0 1021.1 -
16/01:30am 10.9 5.6 8.3 84 1.3 WSW 26 35 14 19 1021.0 1021.1 -
16/01:09am 11.9 4.8 8.0 77 1.9 WSW 35 61 19 33 1021.0 1021.1 -
16/01:00am 11.8 5.7 8.3 79 1.7 W 30 37 16 20 1020.9 1021.0 -
16/12:30am 11.8 6.2 8.6 81 1.6 W 28 41 15 22 1021.1 1021.2 -
16/12:00am 11.4 5.9 9.3 87 1.1 W 28 35 15 19 1021.2 1021.3 -
 
Date/Time
CST
Temp
°C
App
Temp
°C
Dew
Point
°C
Rel
Hum
%
Delta-T
°C
Wind Press
QNH
hPa
Press
MSL
hPa
Rain since
9am
mm
Dir  Spd
km/h
Gust
km/h
Spd
kts
Gust
kts
15/11:30pm 11.7 5.9 9.4 86 1.2 W 30 39 16 21 1021.4 1021.5 -
15/11:00pm 11.6 6.3 9.7 88 1.0 W 28 39 15 21 1021.5 1021.6 -
15/10:30pm 11.0 4.5 9.1 88 0.9 WSW 33 50 18 27 1021.6 1021.7 -
15/10:08pm 10.8 3.6 9.2 90 0.8 W 37 56 20 30 1021.7 1021.8 -
15/10:00pm 10.7 2.7 9.1 90 0.8 W 41 56 22 30 1021.8 1021.9 -
15/09:30pm 11.8 4.6 9.2 84 1.3 W 37 46 20 25 1021.8 1021.9 -

Other Formats:

Comma delimited format used in spreadsheet applications
http://www.bom.gov.au/fwo/IDS60801/IDS60801.94685.axf

JavaScript Object Notation format (JSON) in row-major order
http://www.bom.gov.au/fwo/IDS60801/IDS60801.94685.json